Time;durP1;ratioP1;P1;durP2;ratioP2;P2;SDS_P1;SDS_P2;PMS_P1;PMS_P2;Temp;Humidity;BMP_temperature;BMP_pressure;BME280_temperature;BME280_humidity;BME280_pressure;Samples;Min_cycle;Max_cycle;Signal;HPM_P1;HPM_P2
2022/11/16 00:00:48;;;;;;;63.58;21.33;;;;;;;6.44;100.00;97395.16;4902111;29;20036;-83
2022/11/16 00:03:13;;;;;;;48.83;18.67;;;;;;;6.36;100.00;97388.50;4893983;29;20122;-83
2022/11/16 00:05:39;;;;;;;60.97;17.95;;;;;;;6.32;100.00;97378.94;4895388;29;20027;-81
2022/11/16 00:08:04;;;;;;;75.32;19.75;;;;;;;6.30;100.00;97376.38;4901353;29;20023;-82
2022/11/16 00:10:30;;;;;;;54.38;18.48;;;;;;;6.39;100.00;97380.38;4889206;29;20107;-82
2022/11/16 00:12:55;;;;;;;69.72;20.15;;;;;;;6.26;100.00;97374.78;4894816;29;20039;-82
2022/11/16 00:15:21;;;;;;;51.65;18.48;;;;;;;6.21;100.00;97381.28;4916524;29;20040;-83
2022/11/16 00:17:47;;;;;;;63.92;18.05;;;;;;;6.26;100.00;97372.16;4902805;29;20027;-83
2022/11/16 00:20:12;;;;;;;57.67;17.40;;;;;;;6.20;100.00;97368.91;4902697;29;20671;-82
2022/11/16 00:22:38;;;;;;;83.05;18.33;;;;;;;6.15;100.00;97374.47;4905214;29;20384;-82
2022/11/16 00:25:04;;;;;;;69.65;17.45;;;;;;;6.26;100.00;97381.91;4894711;29;20377;-83
2022/11/16 00:27:29;;;;;;;76.82;17.30;;;;;;;6.21;100.00;97375.97;4894448;29;20491;-83
2022/11/16 00:29:55;;;;;;;60.42;17.25;;;;;;;6.31;100.00;97382.53;4902240;29;20071;-82
2022/11/16 00:32:20;;;;;;;35.20;14.85;;;;;;;6.26;100.00;97384.56;4918325;29;20036;-82
2022/11/16 00:34:46;;;;;;;79.50;16.25;;;;;;;6.10;100.00;97370.28;4896432;29;20028;-83
2022/11/16 00:37:12;;;;;;;64.15;16.45;;;;;;;6.07;100.00;97378.38;4909225;29;20099;-83
2022/11/16 00:39:37;;;;;;;66.00;16.60;;;;;;;5.84;100.00;97340.50;4900450;29;20492;-82
2022/11/16 00:42:03;;;;;;;61.33;16.38;;;;;;;6.05;100.00;97377.59;4904891;29;20031;-82
2022/11/16 00:44:28;;;;;;;59.60;16.17;;;;;;;6.03;100.00;97366.22;4885348;29;20116;-82
2022/11/16 00:46:54;;;;;;;49.63;15.75;;;;;;;6.03;100.00;97376.81;4918022;29;20027;-82
2022/11/16 00:49:22;;;;;;;48.38;16.90;;;;;;;6.06;100.00;97389.97;4891287;29;20027;-82
2022/11/16 00:51:48;;;;;;;46.17;15.48;;;;;;;5.99;100.00;97365.47;4900884;29;20027;-81
2022/11/16 00:54:14;;;;;;;47.97;17.00;;;;;;;6.09;100.00;97388.00;4917937;29;20035;-84
2022/11/16 00:56:39;;;;;;;46.70;16.02;;;;;;;6.05;100.00;97385.56;4891591;29;20123;-82
2022/11/16 00:59:05;;;;;;;48.25;16.65;;;;;;;5.90;100.00;97350.84;4889786;29;20050;-79
2022/11/16 01:01:31;;;;;;;52.50;15.80;;;;;;;6.04;100.00;97375.88;4891225;29;20032;-78
2022/11/16 01:03:56;;;;;;;37.60;14.98;;;;;;;5.92;100.00;97364.03;4874836;29;20032;-79
2022/11/16 01:06:22;;;;;;;49.70;14.38;;;;;;;5.86;100.00;97353.72;4892773;29;20042;-78
2022/11/16 01:08:48;;;;;;;52.88;16.52;;;;;;;5.89;100.00;97359.75;4892752;29;20476;-79
2022/11/16 01:14:02;;;;;;;59.08;16.23;;;;;;;5.84;100.00;97347.59;4905694;29;20038;-79
2022/11/16 01:16:28;;;;;;;97.43;16.85;;;;;;;5.82;100.00;97342.34;4894285;29;20039;-79
2022/11/16 01:19:00;;;;;;;76.97;17.08;;;;;;;5.87;100.00;97335.06;4890675;29;20032;-79
2022/11/16 01:21:25;;;;;;;77.30;16.90;;;;;;;5.94;100.00;97344.44;4883295;29;20044;-78
2022/11/16 01:24:06;;;;;;;54.08;16.88;;;;;;;5.88;100.00;97331.47;4889900;29;20038;-79
2022/11/16 01:26:32;;;;;;;63.10;18.40;;;;;;;5.77;100.00;97309.84;4919790;29;20043;-79
2022/11/16 01:29:00;;;;;;;62.92;18.02;;;;;;;5.89;100.00;97333.19;4900967;29;20504;-78
2022/11/16 01:31:26;;;;;;;117.00;16.15;;;;;;;5.87;100.00;97328.91;4899222;29;20064;-78
2022/11/16 01:33:53;;;;;;;72.97;16.70;;;;;;;5.79;100.00;97325.69;4890262;29;20124;-79
2022/11/16 01:36:18;;;;;;;74.25;16.73;;;;;;;5.83;100.00;97327.28;4911673;29;20046;-78
2022/11/16 01:38:45;;;;;;;52.70;17.15;;;;;;;5.82;100.00;97321.09;4882780;29;20431;-78
2022/11/16 01:41:52;;;;;;;49.53;17.23;;;;;;;5.84;100.00;97305.13;4895954;29;20095;-80
2022/11/16 01:44:33;;;;;;;61.22;17.15;;;;;;;5.85;100.00;97321.00;4821782;29;20086;-78
2022/11/16 01:47:01;;;;;;;67.43;16.85;;;;;;;5.80;100.00;97322.13;4831363;29;20576;-79
2022/11/16 01:53:10;;;;;;;75.60;15.55;;;;;;;5.37;100.00;97268.41;4849669;29;20124;-80
2022/11/16 01:55:37;;;;;;;44.42;15.25;;;;;;;5.37;100.00;97275.50;4857709;29;20057;-79
2022/11/16 01:58:03;;;;;;;114.22;15.43;;;;;;;5.49;100.00;97296.13;4852945;29;20043;-78
2022/11/16 02:00:29;;;;;;;57.25;15.55;;;;;;;5.55;100.00;97313.56;4828962;29;20142;-79
2022/11/16 02:02:54;;;;;;;89.10;17.10;;;;;;;5.54;100.00;97314.50;4825971;29;20112;-77
2022/11/16 02:05:26;;;;;;;101.28;16.02;;;;;;;5.52;100.00;97311.91;4841553;29;20046;-79
2022/11/16 02:10:58;;;;;;;60.17;16.63;;;;;;;5.57;100.00;97317.03;4838585;29;20093;-78
2022/11/16 02:14:07;;;;;;;94.22;16.65;;;;;;;5.64;100.00;97314.00;4850619;29;20052;-78
2022/11/16 02:16:36;;;;;;;147.13;16.70;;;;;;;5.60;100.00;97311.56;4856110;29;20455;-79
2022/11/16 02:19:29;;;;;;;51.63;15.43;;;;;;;5.56;100.00;97318.81;4861876;29;20074;-79
2022/11/16 02:22:01;;;;;;;64.78;15.70;;;;;;;5.53;100.00;97318.94;4908295;29;20539;-79
2022/11/16 02:24:41;;;;;;;85.53;15.70;;;;;;;5.56;100.00;97312.63;4929291;29;20034;-80
2022/11/16 02:27:45;;;;;;;113.07;15.43;;;;;;;5.45;100.00;97302.50;4905930;29;20043;-79
2022/11/16 02:30:11;;;;;;;84.60;15.02;;;;;;;5.48;100.00;97299.72;4914435;29;20419;-79
2022/11/16 02:33:01;;;;;;;93.57;14.65;;;;;;;5.49;100.00;97288.19;4901509;29;20034;-79
2022/11/16 02:35:34;;;;;;;92.03;14.63;;;;;;;5.53;100.00;97291.56;4887813;29;20507;-79
2022/11/16 02:38:10;;;;;;;75.53;14.65;;;;;;;5.42;100.00;97284.94;4885515;29;20062;-79
2022/11/16 02:40:37;;;;;;;72.97;13.93;;;;;;;5.42;100.00;97274.34;4916590;29;20059;-78
2022/11/16 02:43:08;;;;;;;61.28;15.13;;;;;;;5.39;100.00;97274.47;4894318;29;20028;-79
2022/11/16 02:45:37;;;;;;;103.20;14.57;;;;;;;5.37;100.00;97265.75;4897748;29;20038;-78
2022/11/16 02:48:07;;;;;;;46.88;13.18;;;;;;;5.39;100.00;97258.56;4895533;29;20034;-79
2022/11/16 02:50:34;;;;;;;52.75;12.73;;;;;;;5.43;100.00;97260.16;4895026;29;20027;-79
2022/11/16 02:53:00;;;;;;;84.25;14.15;;;;;;;5.28;100.00;97250.25;4885154;29;20057;-79
2022/11/16 02:55:26;;;;;;;55.20;12.57;;;;;;;5.27;100.00;97242.34;4895615;29;20116;-79
2022/11/16 02:58:06;;;;;;;30.02;12.70;;;;;;;5.27;100.00;97248.53;4885815;29;20043;-78
2022/11/16 03:00:42;;;;;;;46.20;12.13;;;;;;;5.21;100.00;97251.47;4899540;29;20028;-77
2022/11/16 03:03:23;;;;;;;53.38;12.35;;;;;;;5.08;100.00;97238.81;4900913;29;20130;-78
2022/11/16 03:05:53;;;;;;;93.97;13.50;;;;;;;5.02;100.00;97228.50;4914879;29;20027;-79
2022/11/16 03:08:24;;;;;;;56.10;12.23;;;;;;;5.11;100.00;97244.84;4892273;29;20050;-78
2022/11/16 03:13:39;;;;;;;47.50;11.88;;;;;;;4.89;100.00;97239.66;4907235;29;20038;-78
2022/11/16 03:16:29;;;;;;;56.83;13.07;;;;;;;4.77;100.00;97224.28;4887379;29;20028;-78
2022/11/16 03:18:55;;;;;;;84.50;12.55;;;;;;;4.75;100.00;97212.91;4908599;29;20124;-79
2022/11/16 03:21:36;;;;;;;27.80;11.75;;;;;;;4.80;100.00;97237.41;4902286;29;21835;-78
2022/11/16 03:24:05;;;;;;;34.95;13.10;;;;;;;4.67;100.00;97225.66;4895044;29;20114;-79
2022/11/16 03:26:46;;;;;;;45.03;12.98;;;;;;;4.78;100.00;97228.69;4903895;29;20168;-79
2022/11/16 03:29:22;;;;;;;28.90;13.15;;;;;;;4.71;100.00;97213.97;4900852;29;20042;-76
2022/11/16 03:31:51;;;;;;;34.38;13.77;;;;;;;4.68;100.00;97224.69;4904819;29;20092;-78
2022/11/16 03:34:19;;;;;;;26.60;12.27;;;;;;;4.62;100.00;97217.03;4908401;29;20422;-79
2022/11/16 03:36:47;;;;;;;25.35;11.90;;;;;;;4.62;100.00;97211.72;4918364;29;20099;-79
2022/11/16 03:39:30;;;;;;;28.20;11.90;;;;;;;4.68;100.00;97213.25;4908874;29;20483;-78
2022/11/16 03:41:57;;;;;;;26.90;11.55;;;;;;;4.65;100.00;97222.19;4896416;29;20428;-79
2022/11/16 03:44:23;;;;;;;29.27;11.02;;;;;;;4.65;100.00;97224.84;4893901;29;20024;-79
2022/11/16 03:46:48;;;;;;;28.63;11.80;;;;;;;4.63;100.00;97224.06;4885983;29;20024;-78
2022/11/16 03:49:14;;;;;;;29.45;12.65;;;;;;;4.62;100.00;97222.31;4898994;29;20032;-78
2022/11/16 03:51:39;;;;;;;32.28;13.73;;;;;;;4.62;100.00;97216.16;4906181;29;20076;-79
2022/11/16 03:54:28;;;;;;;36.28;14.70;;;;;;;4.68;100.00;97234.44;4888476;29;20032;-79
2022/11/16 03:56:53;;;;;;;36.30;14.95;;;;;;;4.53;100.00;97220.06;4837062;29;20180;-78
2022/11/16 03:59:19;;;;;;;31.17;14.60;;;;;;;4.46;100.00;97207.19;4894735;29;20053;-80
2022/11/16 04:01:45;;;;;;;33.67;15.10;;;;;;;4.60;100.00;97225.97;4894479;29;20031;-80
2022/11/16 04:24:10;;;;;;;37.67;16.20;;;;;;;4.62;100.00;97222.31;4895603;29;20490;-79
2022/11/16 04:26:06;;;;;;;38.45;14.63;;;;;;;4.00;100.00;97168.59;4898376;29;20576;-77
2022/11/16 04:28:33;;;;;;;121.03;15.25;;;;;;;3.97;100.00;97161.63;4907659;29;20172;-78
2022/11/16 04:39:17;;;;;;;19.58;9.73;;;;;;;3.82;100.00;97159.63;4914343;29;20535;-78
2022/11/16 04:47:05;;;;;;;20.55;10.35;;;;;;;3.84;100.00;97168.38;4907644;29;20560;-78
2022/11/16 04:47:15;;;;;;;24.90;11.52;;;;;;;3.95;100.00;97170.53;4927724;29;20395;-78
2022/11/16 04:49:40;;;;;;;22.25;11.00;;;;;;;3.92;100.00;97160.97;4896095;29;20032;-78
2022/11/16 04:52:07;;;;;;;20.92;10.88;;;;;;;3.89;100.00;97154.94;4891755;29;20564;-79
2022/11/16 04:54:33;;;;;;;23.45;12.55;;;;;;;3.79;100.00;97126.22;4889019;29;20032;-77
2022/11/16 04:57:08;;;;;;;34.60;16.38;;;;;;;4.02;100.00;97146.44;4898742;29;20085;-77
2022/11/16 04:59:45;;;;;;;37.78;18.85;;;;;;;4.02;100.00;97148.22;4885745;29;20036;-78
2022/11/16 05:02:12;;;;;;;43.42;21.08;;;;;;;4.21;100.00;97175.63;4915858;29;20476;-78
2022/11/16 05:04:40;;;;;;;49.45;21.95;;;;;;;4.18;100.00;97160.69;4888145;29;20484;-79
2022/11/16 05:07:10;;;;;;;44.60;20.30;;;;;;;4.05;100.00;97140.13;4888743;29;20036;-79
2022/11/16 05:09:46;;;;;;;46.05;20.67;;;;;;;4.21;100.00;97167.69;4884284;29;20123;-78
2022/11/16 05:12:18;;;;;;;41.75;19.95;;;;;;;4.27;100.00;97160.34;4900672;29;20074;-76
2022/11/16 05:14:44;;;;;;;47.25;22.10;;;;;;;4.29;100.00;97128.47;4896335;29;20039;-78
2022/11/16 05:17:10;;;;;;;44.83;21.95;;;;;;;4.42;100.00;97150.84;4880990;29;20134;-80
2022/11/16 05:22:21;;;;;;;49.10;22.90;;;;;;;4.65;100.00;97150.69;4915220;29;20172;-79
2022/11/16 05:24:47;;;;;;;55.03;24.85;;;;;;;4.92;100.00;97162.66;4882421;29;20115;-77
2022/11/16 05:27:14;;;;;;;44.47;17.42;;;;;;;4.92;100.00;97152.06;4887393;29;20039;-76
2022/11/16 05:29:40;;;;;;;40.20;16.58;;;;;;;4.92;100.00;97154.72;4902964;29;20028;-78
2022/11/16 05:32:06;;;;;;;33.08;15.80;;;;;;;4.93;100.00;97164.41;4879493;29;20040;-78
2022/11/16 05:34:32;;;;;;;34.67;16.70;;;;;;;5.01;100.00;97149.94;4887548;29;20047;-78
2022/11/16 05:36:59;;;;;;;59.03;20.98;;;;;;;5.03;100.00;97142.78;4895934;29;20038;-77
2022/11/16 05:39:27;;;;;;;46.08;20.05;;;;;;;5.03;100.00;97116.28;4903161;29;20368;-76
2022/11/16 05:41:53;;;;;;;48.47;19.83;;;;;;;5.39;100.00;97163.09;4894635;29;20043;-75
2022/11/16 05:44:19;;;;;;;52.53;23.08;;;;;;;5.53;100.00;97169.56;4898428;29;20126;-75
2022/11/16 05:46:45;;;;;;;55.13;21.85;;;;;;;5.60;100.00;97163.84;4897826;29;20551;-70
2022/11/16 05:49:11;;;;;;;52.88;22.98;;;;;;;5.61;100.00;97160.28;4919512;29;20411;-72
2022/11/16 05:51:39;;;;;;;73.47;27.30;;;;;;;5.77;100.00;97158.59;4894448;29;20099;-71
2022/11/16 05:54:08;;;;;;;140.07;46.90;;;;;;;5.71;100.00;97148.28;4919871;29;20032;-81
2022/11/16 05:56:34;;;;;;;108.88;45.38;;;;;;;5.82;100.00;97145.09;4923128;29;20054;-79
2022/11/16 05:59:00;;;;;;;107.05;41.85;;;;;;;5.85;100.00;97152.91;4896660;29;20110;-80
2022/11/16 06:01:25;;;;;;;79.78;34.78;;;;;;;5.93;100.00;97153.44;4887273;29;20028;-81
2022/11/16 06:03:51;;;;;;;70.53;29.27;;;;;;;5.79;100.00;97124.03;4908279;29;20032;-82
2022/11/16 06:06:17;;;;;;;61.10;27.73;;;;;;;5.96;100.00;97135.56;4896247;29;20027;-80
2022/11/16 06:08:42;;;;;;;62.35;27.48;;;;;;;6.13;100.00;97139.13;4906143;29;20020;-79
2022/11/16 06:11:09;;;;;;;66.05;28.23;;;;;;;6.88;100.00;97176.81;4888407;29;20035;-76
2022/11/16 06:13:35;;;;;;;70.63;29.73;;;;;;;8.67;100.00;97204.75;4903167;29;20031;-82
2022/11/16 06:16:02;;;;;;;36.55;18.73;;;;;;;10.34;100.00;97150.38;4902122;29;20325;-78
2022/11/16 06:18:27;;;;;;;34.13;16.00;;;;;;;11.84;100.00;97090.63;4912171;29;20032;-79
2022/11/16 06:20:53;;;;;;;37.17;16.23;;;;;;;12.96;100.00;97034.47;4912245;29;20087;-81
2022/11/16 06:23:19;;;;;;;72.80;35.88;;;;;;;13.14;100.00;97010.69;4886367;29;20056;-76
2022/11/16 06:25:45;;;;;;;32.50;14.95;;;;;;;13.81;100.00;96984.47;4890404;29;20024;-81
2022/11/16 06:28:11;;;;;;;43.80;20.20;;;;;;;15.15;90.26;96987.16;4904460;29;20024;-79
2022/11/16 06:30:38;;;;;;;64.38;30.17;;;;;;;16.08;81.68;96950.72;4885063;29;20100;-77
2022/11/16 06:33:04;;;;;;;28.95;13.40;;;;;;;17.16;78.29;96935.75;4909631;29;20114;-80
2022/11/16 06:35:30;;;;;;;33.58;17.17;;;;;;;18.17;71.61;96872.34;4891397;29;20119;-80
2022/11/16 06:37:56;;;;;;;31.20;16.75;;;;;;;19.10;63.98;96842.56;4885504;29;20504;-80
2022/11/16 06:40:22;;;;;;;32.88;16.30;;;;;;;20.08;63.38;96847.09;4916548;29;20015;-80
2022/11/16 06:42:48;;;;;;;24.90;14.10;;;;;;;20.81;59.46;96836.94;4915311;29;20106;-80
2022/11/16 06:45:13;;;;;;;27.65;14.25;;;;;;;21.19;56.69;96794.47;4900771;29;20499;-80
2022/11/16 06:47:39;;;;;;;25.25;14.00;;;;;;;21.36;55.09;96778.88;4884842;29;20101;-80
2022/11/16 06:50:05;;;;;;;25.58;16.27;;;;;;;21.73;54.56;96765.31;4894065;29;20028;-80
2022/11/16 06:52:30;;;;;;;71.40;30.52;;;;;;;22.40;53.10;96770.78;4902424;29;20462;-80
2022/11/16 06:54:56;;;;;;;39.33;18.50;;;;;;;22.49;51.37;96756.03;4887116;29;20035;-77
2022/11/16 06:57:21;;;;;;;46.85;25.00;;;;;;;22.73;52.06;96749.50;4901538;29;20491;-80
2022/11/16 06:59:47;;;;;;;27.45;17.05;;;;;;;22.99;51.87;96737.03;4899697;29;20035;-80
2022/11/16 07:02:12;;;;;;;24.15;13.80;;;;;;;23.48;48.57;96744.50;4895882;29;20024;-79
2022/11/16 07:04:38;;;;;;;28.15;15.45;;;;;;;23.48;48.72;96741.78;4888971;29;20028;-78
2022/11/16 07:07:04;;;;;;;64.43;18.73;;;;;;;23.45;48.17;96715.72;4891009;29;20035;-80
2022/11/16 07:09:29;;;;;;;84.32;21.88;;;;;;;23.93;47.97;96735.91;4887508;29;20036;-80
2022/11/16 07:11:55;;;;;;;33.65;13.90;;;;;;;23.90;49.43;96740.91;4905821;29;20035;-81
2022/11/16 07:14:22;;;;;;;19.50;10.18;;;;;;;23.89;48.17;96700.97;4893389;29;20130;-80
2022/11/16 07:16:48;;;;;;;16.30;8.38;;;;;;;23.89;47.41;96692.78;4892731;29;20123;-80
2022/11/16 07:19:13;;;;;;;12.48;6.82;;;;;;;24.63;46.02;96702.09;4900153;29;20123;-80
2022/11/16 07:21:39;;;;;;;12.63;7.45;;;;;;;24.68;45.97;96680.44;4896362;29;20032;-79
2022/11/16 07:24:05;;;;;;;10.95;6.07;;;;;;;24.74;43.21;96658.59;4894112;29;20499;-80
2022/11/16 07:26:34;;;;;;;12.75;6.53;;;;;;;25.43;42.39;96662.97;4910046;29;20031;-78
2022/11/16 07:29:00;;;;;;;12.25;6.65;;;;;;;25.67;41.47;96656.91;4912415;29;20065;-78
2022/11/16 07:31:26;;;;;;;16.10;8.93;;;;;;;25.21;42.16;96654.09;4891041;29;20028;-79
2022/11/16 07:33:52;;;;;;;16.92;10.70;;;;;;;25.72;44.87;96657.97;4884112;29;20040;-79
2022/11/16 07:36:18;;;;;;;9.13;5.55;;;;;;;26.15;39.82;96633.69;4896587;29;20017;-78
2022/11/16 07:38:43;;;;;;;13.32;5.85;;;;;;;26.57;40.17;96636.94;4883578;29;20040;-79
2022/11/16 07:41:11;;;;;;;10.85;6.97;;;;;;;26.91;39.56;96625.63;4896559;29;20089;-82
2022/11/16 07:43:40;;;;;;;11.93;7.18;;;;;;;26.91;39.65;96615.50;4900227;29;20038;-81
2022/11/16 07:46:09;;;;;;;12.27;7.03;;;;;;;27.57;40.29;96649.91;4885199;29;20411;-80
2022/11/16 07:48:34;;;;;;;9.48;5.53;;;;;;;26.47;37.89;96606.38;4912605;29;20038;-83
2022/11/16 07:51:01;;;;;;;8.52;5.70;;;;;;;24.38;41.20;96602.47;4891483;29;20407;-84
2022/11/16 07:53:27;;;;;;;12.18;7.63;;;;;;;24.79;44.21;96619.69;4886668;29;20092;-82
2022/11/16 07:55:53;;;;;;;7.28;4.90;;;;;;;25.35;39.94;96614.72;4884137;29;20469;-84
2022/11/16 07:58:19;;;;;;;8.63;5.63;;;;;;;25.33;40.96;96619.59;4894095;29;20062;-80
2022/11/16 08:00:44;;;;;;;14.75;5.10;;;;;;;25.47;40.25;96593.06;4899622;29;20027;-78
2022/11/16 08:03:10;;;;;;;7.60;4.57;;;;;;;25.64;39.63;96602.53;4892359;29;20043;-77
2022/11/16 08:05:35;;;;;;;9.23;5.50;;;;;;;26.00;39.04;96602.06;4883236;29;20036;-79
2022/11/16 08:08:01;;;;;;;7.20;4.60;;;;;;;26.53;37.53;96600.03;4899656;29;20380;-84
2022/11/16 08:10:28;;;;;;;8.68;4.95;;;;;;;26.01;38.40;96579.06;4897002;29;20095;-83
2022/11/16 08:12:54;;;;;;;7.40;4.10;;;;;;;26.39;37.85;96580.06;4884521;29;20040;-84
2022/11/16 08:15:20;;;;;;;8.68;4.88;;;;;;;26.93;37.13;96602.38;4914899;29;20028;-84
2022/11/16 08:17:45;;;;;;;7.50;4.43;;;;;;;27.35;36.11;96586.22;4893939;29;20151;-84
2022/11/16 08:20:11;;;;;;;6.65;4.10;;;;;;;27.14;36.28;96587.44;4888273;29;20039;-83
2022/11/16 08:22:38;;;;;;;6.25;4.38;;;;;;;26.92;36.36;96592.44;4890911;29;20039;-82
2022/11/16 08:25:04;;;;;;;9.60;5.07;;;;;;;27.17;36.30;96587.00;4888168;29;20114;-83
2022/11/16 08:27:31;;;;;;;8.63;5.55;;;;;;;27.45;35.94;96598.44;4882989;29;20066;-82
2022/11/16 08:29:56;;;;;;;13.02;5.03;;;;;;;28.01;34.63;96575.50;4887165;29;20124;-88
2022/11/16 08:32:22;;;;;;;9.60;4.93;;;;;;;28.11;34.70;96578.63;4897903;29;20469;-85
2022/11/16 08:34:47;;;;;;;11.25;5.75;;;;;;;27.82;35.36;96571.06;4914965;29;20054;-83
2022/11/16 08:37:13;;;;;;;10.98;4.63;;;;;;;27.77;34.63;96560.75;4908754;29;20095;-80
2022/11/16 08:39:39;;;;;;;9.02;5.20;;;;;;;26.80;36.24;96565.91;4910969;29;20023;-82
2022/11/16 08:42:04;;;;;;;10.88;5.72;;;;;;;27.03;35.56;96560.72;4886997;29;20046;-82
2022/11/16 08:44:30;;;;;;;9.40;5.25;;;;;;;27.57;35.57;96576.56;4897300;29;20124;-82
2022/11/16 08:46:55;;;;;;;6.03;4.15;;;;;;;26.15;36.33;96562.41;4900021;29;20038;-84
2022/11/16 08:49:21;;;;;;;8.73;4.78;;;;;;;25.68;37.13;96552.59;4886729;29;20499;-86
2022/11/16 08:51:46;;;;;;;17.80;10.52;;;;;;;25.30;37.80;96555.13;4903541;29;20055;-83
2022/11/16 08:54:12;;;;;;;9.90;5.82;;;;;;;25.86;37.24;96565.63;4899887;29;20441;-84
2022/11/16 08:56:37;;;;;;;5.43;4.03;;;;;;;25.60;37.64;96552.81;4902241;29;20130;-86
2022/11/16 08:59:03;;;;;;;6.60;4.10;;;;;;;25.74;37.53;96548.16;4885943;29;20043;-84
2022/11/16 09:01:30;;;;;;;10.05;4.68;;;;;;;26.16;37.04;96558.59;4889055;29;20109;-82
2022/11/16 09:03:56;;;;;;;5.50;4.10;;;;;;;25.10;38.30;96537.84;4901361;29;20024;-83
2022/11/16 09:06:24;;;;;;;10.82;5.10;;;;;;;25.30;38.23;96557.88;4895024;29;20484;-82
2022/11/16 09:08:49;;;;;;;8.13;3.83;;;;;;;25.79;37.47;96548.34;4885841;29;20031;-82
2022/11/16 09:11:17;;;;;;;6.55;4.28;;;;;;;25.90;36.89;96555.09;4882223;29;20032;-82
2022/11/16 09:13:44;;;;;;;5.20;3.75;;;;;;;26.46;36.39;96556.16;4899193;29;20034;-81
2022/11/16 09:16:10;;;;;;;6.28;4.13;;;;;;;26.50;36.47;96526.38;4883503;29;20119;-81
2022/11/16 09:18:35;;;;;;;8.45;4.28;;;;;;;26.21;36.08;96514.09;4897971;29;20462;-81
2022/11/16 09:21:01;;;;;;;6.18;4.15;;;;;;;26.30;36.20;96519.09;4884491;29;20516;-80
2022/11/16 09:23:27;;;;;;;10.10;4.95;;;;;;;26.50;36.67;96523.66;4899730;29;20046;-81
2022/11/16 09:25:53;;;;;;;7.90;4.82;;;;;;;27.20;35.84;96520.66;4893336;29;20060;-81
2022/11/16 09:28:20;;;;;;;9.90;4.55;;;;;;;27.26;34.77;96519.75;4912509;29;20920;-79
2022/11/16 09:30:48;;;;;;;10.95;6.55;;;;;;;27.47;35.13;96521.31;4903569;29;20024;-80
2022/11/16 09:33:28;;;;;;;9.85;5.28;;;;;;;27.68;35.34;96523.63;4894264;29;20498;-79
2022/11/16 09:35:53;;;;;;;10.15;4.40;;;;;;;28.15;33.75;96513.81;4906247;29;20024;-83
2022/11/16 09:38:19;;;;;;;9.27;4.53;;;;;;;28.84;33.21;96529.84;4911024;29;20035;-81
2022/11/16 09:40:47;;;;;;;7.65;4.35;;;;;;;28.72;33.25;96514.34;4912564;29;20112;-81
2022/11/16 09:43:31;;;;;;;8.55;4.32;;;;;;;28.36;33.45;96510.56;4896934;29;20075;-80
2022/11/16 09:46:02;;;;;;;8.63;4.65;;;;;;;28.02;33.91;96513.09;4936071;29;20035;-79
2022/11/16 09:48:28;;;;;;;11.52;6.65;;;;;;;27.70;34.14;96482.16;4926749;29;20062;-80
2022/11/16 09:51:00;;;;;;;9.15;5.82;;;;;;;27.65;34.14;96465.53;4885668;29;20083;-79
2022/11/16 09:53:26;;;;;;;9.07;4.60;;;;;;;28.09;33.61;96497.38;4896254;29;20036;-79
2022/11/16 09:56:04;;;;;;;6.45;4.53;;;;;;;28.41;33.89;96499.72;4907726;29;20563;-79
2022/11/16 09:58:54;;;;;;;6.43;4.60;;;;;;;28.32;32.72;96472.75;4907746;29;20122;-80
2022/11/16 10:01:27;;;;;;;5.82;4.03;;;;;;;26.69;34.84;96459.56;4893579;29;20032;-80
2022/11/16 10:03:59;;;;;;;7.15;4.30;;;;;;;26.36;36.42;96468.84;4913318;29;20032;-79
2022/11/16 10:06:53;;;;;;;8.85;5.25;;;;;;;27.64;34.65;96488.56;4886728;29;20092;-79
2022/11/16 10:09:18;;;;;;;6.95;4.65;;;;;;;28.18;33.53;96476.78;4901534;29;20096;-79
2022/11/16 10:11:53;;;;;;;14.18;8.98;;;;;;;28.62;33.10;96475.50;4889623;29;20594;-79
2022/11/16 10:14:26;;;;;;;7.85;5.78;;;;;;;27.00;33.75;96445.00;4904477;29;20058;-79
2022/11/16 10:17:27;;;;;;;7.55;5.05;;;;;;;24.39;37.34;96423.72;4888838;29;20035;-79
2022/11/16 10:20:05;;;;;;;8.95;5.22;;;;;;;23.50;40.16;96428.47;4901721;29;20031;-78
2022/11/16 10:22:40;;;;;;;9.77;5.47;;;;;;;23.51;40.90;96451.97;4910791;29;20032;-79
2022/11/16 10:25:13;;;;;;;6.55;4.10;;;;;;;23.12;40.10;96404.28;4891253;29;20542;-80
2022/11/16 10:28:18;;;;;;;8.63;5.47;;;;;;;22.65;42.17;96442.34;4902184;29;20032;-78
2022/11/16 10:31:18;;;;;;;9.35;5.85;;;;;;;22.65;41.83;96442.34;4877917;29;20090;-79
2022/11/16 10:33:47;;;;;;;7.30;4.75;;;;;;;22.79;41.47;96438.69;4911761;29;20039;-78
2022/11/16 10:36:14;;;;;;;7.20;3.83;;;;;;;24.00;39.91;96469.00;4903687;29;20023;-78
2022/11/16 10:38:41;;;;;;;8.20;5.22;;;;;;;25.54;37.88;96462.44;4902110;29;20115;-78
2022/11/16 10:41:22;;;;;;;9.45;5.00;;;;;;;26.35;35.96;96466.34;4884506;29;20583;-78
2022/11/16 10:43:48;;;;;;;8.75;5.63;;;;;;;26.60;35.85;96459.00;4915487;29;20036;-79
2022/11/16 10:46:39;;;;;;;7.47;4.20;;;;;;;25.42;36.36;96436.72;4884541;29;20179;-79
2022/11/16 10:49:10;;;;;;;5.85;4.13;;;;;;;25.10;37.32;96443.97;4885448;29;20047;-78
2022/11/16 10:51:36;;;;;;;5.53;4.28;;;;;;;25.25;37.37;96434.47;4915317;29;20040;-78
2022/11/16 10:54:13;;;;;;;6.95;4.18;;;;;;;27.02;34.76;96445.59;4895778;29;20036;-80
2022/11/16 10:56:41;;;;;;;10.40;4.93;;;;;;;27.99;33.02;96434.66;4902558;29;20460;-80
2022/11/16 10:59:12;;;;;;;19.52;9.32;;;;;;;27.33;34.22;96432.66;4902175;29;20164;-80
2022/11/16 11:01:43;;;;;;;8.63;5.20;;;;;;;26.55;35.05;96409.44;4903218;29;20031;-80
2022/11/16 11:04:20;;;;;;;9.30;5.03;;;;;;;24.56;37.49;96387.56;4913339;29;20287;-79
2022/11/16 11:06:50;;;;;;;10.30;5.93;;;;;;;24.42;38.64;96393.22;4894893;29;20408;-79
2022/11/16 11:09:25;;;;;;;7.45;4.75;;;;;;;24.08;38.94;96406.00;4891295;29;20063;-79
2022/11/16 11:12:39;;;;;;;10.35;4.65;;;;;;;23.47;39.43;96396.13;4917117;29;20423;-78
2022/11/16 11:15:10;;;;;;;8.80;4.80;;;;;;;22.98;40.54;96397.06;4927263;29;20465;-79
2022/11/16 11:17:39;;;;;;;14.18;6.97;;;;;;;22.70;41.39;96398.97;4901902;29;20035;-77
2022/11/16 11:20:04;;;;;;;9.23;5.63;;;;;;;22.49;41.77;96412.59;4891436;29;20036;-77
2022/11/16 11:22:34;;;;;;;13.32;6.22;;;;;;;22.27;41.91;96400.03;4915140;29;20050;-77
2022/11/16 11:25:02;;;;;;;23.23;6.85;;;;;;;21.82;43.54;96393.03;4912749;29;20036;-78
2022/11/16 11:27:33;;;;;;;14.70;5.97;;;;;;;21.95;43.03;96409.56;4895094;29;20526;-79
2022/11/16 11:29:59;;;;;;;28.55;11.13;;;;;;;21.85;43.65;96400.81;4902464;29;20028;-79
2022/11/16 11:32:30;;;;;;;40.70;18.88;;;;;;;21.72;43.09;96390.63;4894918;29;20046;-77
2022/11/16 11:34:58;;;;;;;14.70;8.37;;;;;;;21.52;43.43;96403.19;4895972;29;20116;-79
2022/11/16 11:37:26;;;;;;;8.88;4.43;;;;;;;21.35;43.33;96396.28;4890802;29;20869;-80
2022/11/16 11:40:23;;;;;;;10.65;5.60;;;;;;;21.23;44.96;96398.63;4883525;29;20028;-79
2022/11/16 11:43:00;;;;;;;7.50;4.55;;;;;;;21.22;44.66;96406.97;4899228;29;20024;-80
2022/11/16 11:45:43;;;;;;;8.30;4.93;;;;;;;20.89;44.99;96392.88;4900983;29;20058;-79
2022/11/16 11:48:14;;;;;;;;;;;;;;;20.75;44.93;96400.00;4901736;29;20032;-80
2022/11/16 11:51:14;;;;;;;8.50;4.88;;;;;;;20.69;46.49;96405.31;4904860;29;19922;-78
2022/11/16 11:53:51;;;;;;;13.80;7.57;;;;;;;20.22;46.14;96359.41;4928941;29;20484;-79
2022/11/16 11:56:17;;;;;;;6.70;4.32;;;;;;;19.79;46.13;96333.81;4882603;29;20521;-80
2022/11/16 11:58:44;;;;;;;9.18;4.40;;;;;;;19.76;46.85;96359.44;4905318;29;20062;-80
2022/11/16 12:01:28;;;;;;;10.45;6.30;;;;;;;19.47;47.67;96375.59;4909479;29;20024;-78
2022/11/16 12:04:33;;;;;;;9.27;4.50;;;;;;;19.65;47.17;96357.16;4925148;29;20028;-79
2022/11/16 12:07:11;;;;;;;8.48;4.38;;;;;;;19.73;46.96;96339.94;4889315;29;20530;-79
2022/11/16 12:09:48;;;;;;;8.82;5.25;;;;;;;20.03;47.27;96388.75;4880151;29;20044;-79
2022/11/16 12:12:32;;;;;;;11.73;5.32;;;;;;;20.10;47.29;96394.28;4900439;29;20404;-81
2022/11/16 12:15:23;;;;;;;15.60;7.57;;;;;;;20.30;47.12;96402.81;4901882;29;20020;-79
2022/11/16 12:18:01;;;;;;;9.75;5.07;;;;;;;19.63;47.64;96352.91;4895533;29;20050;-79
2022/11/16 12:20:37;;;;;;;9.60;4.72;;;;;;;19.63;48.25;96389.03;4890487;29;20028;-79